Time;durP1;ratioP1;P1;durP2;ratioP2;P2;SDS_P1;SDS_P2;PMS_P1;PMS_P2;Temp;Humidity;BMP_temperature;BMP_pressure;BME280_temperature;BME280_humidity;BME280_pressure;Samples;Min_cycle;Max_cycle;Signal;HPM_P1;HPM_P2
2022/09/06 00:01:13;;;;;;;1999.90;999.90;;;22.90;54.60;;;;;;5012604;28;20180;-69
2022/09/06 00:03:39;;;;;;;1999.90;999.90;;;22.40;82.50;;;;;;5012223;28;20187;-69
2022/09/06 00:06:07;;;;;;;1999.90;999.90;;;21.90;99.90;;;;;;5014491;28;20504;-69
2022/09/06 00:08:33;;;;;;;1999.90;999.90;;;21.50;99.90;;;;;;5016393;28;20182;-68
2022/09/06 00:10:58;;;;;;;1999.90;999.90;;;21.00;99.90;;;;;;5016217;28;20782;-69
2022/09/06 00:13:24;;;;;;;1999.90;999.90;;;20.50;99.90;;;;;;5016184;28;20216;-70
2022/09/06 00:15:49;;;;;;;1999.90;999.90;;;20.00;99.90;;;;;;5015850;28;20255;-70
2022/09/06 00:18:15;;;;;;;1999.90;999.90;;;19.60;99.90;;;;;;5015919;28;20659;-70
2022/09/06 00:20:41;;;;;;;1999.90;999.90;;;19.30;99.90;;;;;;5015925;28;20619;-71
2022/09/06 00:23:07;;;;;;;1999.90;999.90;;;19.10;99.90;;;;;;5015942;28;20180;-70
2022/09/06 00:25:33;;;;;;;1999.90;999.90;;;19.00;99.90;;;;;;5015824;28;20666;-70
2022/09/06 00:28:02;;;;;;;1999.90;999.90;;;19.00;99.90;;;;;;5015554;28;20900;-70
2022/09/06 00:30:29;;;;;;;1999.90;999.90;;;18.80;99.90;;;;;;5015747;28;20411;-70
2022/09/06 00:32:55;;;;;;;1999.90;999.90;;;18.80;99.90;;;;;;5015656;28;20825;-70
2022/09/06 00:35:23;;;;;;;1999.90;999.90;;;18.70;99.90;;;;;;5015601;28;20412;-70
2022/09/06 00:37:49;;;;;;;1999.90;999.90;;;18.60;99.90;;;;;;5015336;28;20434;-70
2022/09/06 00:40:15;;;;;;;1999.90;999.90;;;18.40;99.90;;;;;;5015578;28;20462;-70
2022/09/06 00:42:41;;;;;;;1999.90;999.90;;;18.30;99.90;;;;;;5015548;28;20908;-70
2022/09/06 00:45:08;;;;;;;1999.90;999.90;;;18.30;99.90;;;;;;5015538;28;20473;-70
2022/09/06 00:47:38;;;;;;;1999.90;999.90;;;18.20;99.90;;;;;;5015112;28;20191;-70
2022/09/06 00:50:05;;;;;;;1999.90;999.90;;;18.20;99.90;;;;;;5015496;28;20440;-69
2022/09/06 00:52:32;;;;;;;1999.90;999.90;;;18.20;99.90;;;;;;5015406;28;20448;-69
2022/09/06 00:54:58;;;;;;;1999.90;999.90;;;18.20;99.90;;;;;;5015318;28;20912;-69
2022/09/06 00:57:28;;;;;;;1999.90;999.90;;;18.30;99.90;;;;;;5014835;28;21002;-70
2022/09/06 00:59:54;;;;;;;1999.90;999.90;;;18.30;99.90;;;;;;5015253;28;20466;-70
2022/09/06 01:02:20;;;;;;;1999.90;999.90;;;18.40;99.90;;;;;;5015199;28;20433;-70
2022/09/06 01:04:47;;;;;;;1999.90;999.90;;;18.50;99.90;;;;;;5015376;28;20785;-69
2022/09/06 01:07:54;;;;;;;1999.90;999.90;;;18.60;99.90;;;;;;5014808;28;20184;-69
2022/09/06 01:10:30;;;;;;;1999.90;999.90;;;18.70;99.90;;;;;;4986797;28;20416;-70
2022/09/06 01:13:10;;;;;;;1999.90;999.90;;;18.70;99.90;;;;;;5014895;28;20425;-69
2022/09/06 01:15:59;;;;;;;1999.90;999.90;;;18.80;99.90;;;;;;5014750;28;20481;-69
2022/09/06 01:18:36;;;;;;;1999.90;999.90;;;18.90;99.90;;;;;;5014510;28;20944;-70
2022/09/06 01:21:09;;;;;;;1999.90;999.90;;;18.80;99.90;;;;;;5014741;28;20437;-70
2022/09/06 01:23:53;;;;;;;1999.90;999.90;;;18.70;99.90;;;;;;5014851;28;20412;-71
2022/09/06 01:26:43;;;;;;;1999.90;999.90;;;18.70;99.90;;;;;;5014390;28;20426;-69
2022/09/06 01:29:34;;;;;;;1999.90;999.90;;;18.80;99.90;;;;;;5014750;28;20409;-69
2022/09/06 01:32:22;;;;;;;1999.90;999.90;;;18.80;99.90;;;;;;5014677;28;20824;-69
2022/09/06 01:34:54;;;;;;;1999.90;999.90;;;18.80;99.90;;;;;;5006457;28;20437;-69
2022/09/06 01:37:22;;;;;;;1999.90;999.90;;;18.80;99.90;;;;;;5014236;28;20561;-69
2022/09/06 01:39:48;;;;;;;1999.90;999.90;;;18.70;99.90;;;;;;5014405;28;20396;-70
2022/09/06 01:42:22;;;;;;;1999.90;999.90;;;18.70;99.90;;;;;;5014456;28;20410;-70
2022/09/06 01:44:56;;;;;;;1999.90;999.90;;;18.70;99.90;;;;;;5014501;28;20178;-69
2022/09/06 01:47:42;;;;;;;1999.90;999.90;;;18.80;99.90;;;;;;5014067;28;20397;-70
2022/09/06 01:50:17;;;;;;;1999.90;999.90;;;18.80;99.90;;;;;;5014276;28;20428;-70
2022/09/06 01:52:45;;;;;;;1999.90;999.90;;;18.80;99.90;;;;;;5014153;28;21003;-70
2022/09/06 01:55:17;;;;;;;1999.90;999.90;;;18.80;99.90;;;;;;5014199;28;20401;-70
2022/09/06 01:57:46;;;;;;;1999.90;999.90;;;18.80;99.90;;;;;;5013905;28;20440;-70
2022/09/06 02:00:17;;;;;;;1999.90;999.90;;;18.70;99.90;;;;;;5014112;28;20415;-70
2022/09/06 02:03:01;;;;;;;1999.90;999.90;;;18.70;99.90;;;;;;5014049;28;20408;-70
2022/09/06 02:05:46;;;;;;;1999.90;999.90;;;18.80;99.90;;;;;;5014082;28;20859;-70
2022/09/06 02:08:35;;;;;;;1999.90;999.90;;;18.90;99.90;;;;;;5013678;28;20839;-70
2022/09/06 02:11:04;;;;;;;1999.90;999.90;;;18.90;99.90;;;;;;5014322;28;20844;-69
2022/09/06 02:13:36;;;;;;;1999.90;999.90;;;18.90;99.90;;;;;;5013712;28;20954;-69
2022/09/06 02:16:04;;;;;;;1999.90;999.90;;;18.80;99.90;;;;;;5013478;28;20454;-70
2022/09/06 02:18:36;;;;;;;1999.90;999.90;;;18.90;99.90;;;;;;5013749;28;20438;-68
2022/09/06 02:21:03;;;;;;;1999.90;999.90;;;19.00;99.90;;;;;;5013759;28;20411;-69
2022/09/06 02:23:33;;;;;;;1999.90;999.90;;;19.00;99.90;;;;;;5013594;28;20408;-70
2022/09/06 02:26:07;;;;;;;1999.90;999.90;;;19.10;99.90;;;;;;5013248;28;20967;-70
2022/09/06 02:28:32;;;;;;;1999.90;999.90;;;19.20;99.90;;;;;;5013111;28;20461;-70
2022/09/06 02:31:03;;;;;;;1999.90;999.90;;;19.20;99.90;;;;;;5013545;28;20415;-70
2022/09/06 02:33:31;;;;;;;1999.90;999.90;;;19.30;99.90;;;;;;5013509;28;20192;-69
2022/09/06 02:36:03;;;;;;;1999.90;999.90;;;19.30;99.90;;;;;;5013310;28;20998;-69
2022/09/06 02:38:30;;;;;;;1999.90;999.90;;;19.30;99.90;;;;;;5013385;28;20906;-69
2022/09/06 02:40:56;;;;;;;1999.90;999.90;;;19.30;99.90;;;;;;5013542;28;20400;-68
2022/09/06 02:43:22;;;;;;;1999.90;999.90;;;19.30;99.90;;;;;;5013356;28;20459;-68
2022/09/06 02:45:47;;;;;;;1999.90;999.90;;;19.40;99.90;;;;;;5013195;28;20448;-68
2022/09/06 02:48:13;;;;;;;1999.90;999.90;;;19.40;99.90;;;;;;5013080;28;20234;-69
2022/09/06 02:50:39;;;;;;;1999.90;999.90;;;19.40;99.90;;;;;;5013207;28;20172;-68
2022/09/06 02:53:13;;;;;;;1999.90;999.90;;;19.40;99.90;;;;;;5013103;28;20362;-68
2022/09/06 02:55:39;;;;;;;1999.90;999.90;;;19.30;99.90;;;;;;5013007;28;20214;-69
2022/09/06 02:58:06;;;;;;;1999.90;999.90;;;19.30;99.90;;;;;;5012765;28;20446;-68
2022/09/06 03:00:32;;;;;;;1999.90;999.90;;;19.20;99.90;;;;;;5013063;28;20410;-69
2022/09/06 03:02:58;;;;;;;1999.90;999.90;;;19.20;99.90;;;;;;5012942;28;20407;-69
2022/09/06 03:05:26;;;;;;;1999.90;999.90;;;19.20;99.90;;;;;;5012893;28;20417;-70
2022/09/06 03:07:52;;;;;;;1999.90;999.90;;;19.20;99.90;;;;;;5012551;28;20948;-69
2022/09/06 03:10:17;;;;;;;1999.90;999.90;;;19.30;99.90;;;;;;5013007;28;20410;-70
2022/09/06 03:12:44;;;;;;;1999.90;999.90;;;19.30;99.90;;;;;;5012804;28;20472;-70
2022/09/06 03:15:10;;;;;;;1999.90;999.90;;;19.30;99.90;;;;;;5012872;28;20174;-69
2022/09/06 03:17:36;;;;;;;1999.90;999.90;;;19.20;99.90;;;;;;5012360;28;20769;-69
2022/09/06 03:20:03;;;;;;;1999.90;999.90;;;19.20;99.90;;;;;;5012676;28;20411;-69
2022/09/06 03:22:29;;;;;;;1999.90;999.90;;;19.20;99.90;;;;;;5012648;28;20807;-68
2022/09/06 03:24:55;;;;;;;1999.90;999.90;;;19.20;99.90;;;;;;5012765;28;20417;-70
2022/09/06 03:27:21;;;;;;;1999.90;999.90;;;19.10;99.90;;;;;;5012234;28;20427;-69
2022/09/06 03:29:46;;;;;;;1999.90;999.90;;;19.10;99.90;;;;;;5012621;28;20175;-70
2022/09/06 03:32:12;;;;;;;1999.90;999.90;;;19.00;99.90;;;;;;5012563;28;20255;-70
2022/09/06 03:34:37;;;;;;;1999.90;999.90;;;19.00;99.90;;;;;;5012325;28;20226;-69
2022/09/06 03:37:03;;;;;;;1999.90;999.90;;;18.90;99.90;;;;;;5012140;28;20191;-70
2022/09/06 03:39:29;;;;;;;1999.90;999.90;;;18.80;99.90;;;;;;5011605;28;20196;-70
2022/09/06 03:41:54;;;;;;;1999.90;999.90;;;18.70;99.90;;;;;;5012414;28;20173;-70
2022/09/06 03:44:20;;;;;;;1999.90;999.90;;;18.60;99.90;;;;;;5012411;28;20171;-70
2022/09/06 03:46:45;;;;;;;1999.90;999.90;;;18.50;99.90;;;;;;5012048;28;20186;-69
2022/09/06 03:49:11;;;;;;;1999.90;999.90;;;18.50;99.90;;;;;;5012278;28;20188;-70
2022/09/06 03:51:37;;;;;;;1999.90;999.90;;;18.40;99.90;;;;;;5012397;28;20197;-70
2022/09/06 03:54:03;;;;;;;1999.90;999.90;;;18.40;99.90;;;;;;5012162;28;21062;-70
2022/09/06 03:56:29;;;;;;;1999.90;999.90;;;18.30;99.90;;;;;;5011983;28;20193;-70
2022/09/06 03:58:54;;;;;;;1999.90;999.90;;;18.30;99.90;;;;;;5012223;28;20580;-70
2022/09/06 04:01:20;;;;;;;1999.90;999.90;;;18.30;99.90;;;;;;5012172;28;20166;-70
2022/09/06 04:03:46;;;;;;;1999.90;999.90;;;18.30;99.90;;;;;;5012124;28;20180;-70
2022/09/06 04:06:11;;;;;;;1999.90;999.90;;;18.20;99.90;;;;;;5012085;28;20265;-70
2022/09/06 04:08:37;;;;;;;1999.90;999.90;;;18.20;99.90;;;;;;5012168;28;20220;-69
2022/09/06 04:11:03;;;;;;;1999.90;999.90;;;18.20;99.90;;;;;;5012065;28;20172;-69
2022/09/06 04:13:30;;;;;;;1999.90;999.90;;;18.30;99.90;;;;;;5012118;28;20449;-69
2022/09/06 04:15:56;;;;;;;1999.90;999.90;;;18.20;99.90;;;;;;5011898;28;20189;-69
2022/09/06 04:18:22;;;;;;;1999.90;999.90;;;18.10;99.90;;;;;;5011931;28;20494;-69
2022/09/06 04:20:49;;;;;;;1999.90;999.90;;;18.10;99.90;;;;;;5012000;28;20400;-69
2022/09/06 04:23:16;;;;;;;1999.90;999.90;;;18.10;99.90;;;;;;5011927;28;20417;-69
2022/09/06 04:25:48;;;;;;;1999.90;999.90;;;18.00;99.90;;;;;;5011987;28;20437;-69
2022/09/06 04:28:14;;;;;;;1999.90;999.90;;;18.00;99.90;;;;;;5011762;28;20778;-69
2022/09/06 04:30:39;;;;;;;1999.90;999.90;;;17.90;99.90;;;;;;5011904;28;20436;-69
2022/09/06 04:33:05;;;;;;;1999.90;999.90;;;17.80;99.90;;;;;;5011847;28;20819;-69
2022/09/06 04:35:31;;;;;;;1999.90;999.90;;;17.80;99.90;;;;;;5011815;28;20174;-69
2022/09/06 04:37:59;;;;;;;1999.90;999.90;;;17.80;99.90;;;;;;5011620;28;20545;-69
2022/09/06 04:40:25;;;;;;;1999.90;999.90;;;17.80;99.90;;;;;;5011885;28;20172;-69
2022/09/06 04:42:51;;;;;;;1999.90;999.90;;;17.80;99.90;;;;;;5011766;28;20414;-69
2022/09/06 04:45:17;;;;;;;1999.90;999.90;;;17.80;99.90;;;;;;5011682;28;20172;-69
2022/09/06 04:47:42;;;;;;;1999.90;999.90;;;17.80;99.90;;;;;;5011509;28;20174;-69
2022/09/06 04:50:08;;;;;;;1999.90;999.90;;;17.80;99.90;;;;;;5011700;28;20416;-69
2022/09/06 04:52:34;;;;;;;1999.90;999.90;;;17.80;99.90;;;;;;5014869;28;20183;-69
2022/09/06 04:54:59;;;;;;;1999.90;999.90;;;17.80;99.90;;;;;;5015342;28;20417;-69
2022/09/06 04:57:25;;;;;;;1999.90;999.90;;;17.80;99.90;;;;;;5014962;28;20215;-69
2022/09/06 04:59:51;;;;;;;1999.90;999.90;;;17.70;99.90;;;;;;5015167;28;20168;-69
2022/09/06 05:02:16;;;;;;;1999.90;999.90;;;17.60;99.90;;;;;;5015255;28;20186;-70
2022/09/06 05:04:42;;;;;;;1999.90;999.90;;;17.60;99.90;;;;;;5015161;28;20180;-71
2022/09/06 05:07:08;;;;;;;1999.90;999.90;;;17.60;99.90;;;;;;5014884;28;20267;-69
2022/09/06 05:09:34;;;;;;;1999.90;999.90;;;17.60;99.90;;;;;;5015093;28;20176;-69
2022/09/06 05:12:00;;;;;;;1999.90;999.90;;;17.60;99.90;;;;;;5015052;28;20444;-69
2022/09/06 05:14:27;;;;;;;1999.90;999.90;;;17.60;99.90;;;;;;5014878;28;20881;-69
2022/09/06 05:16:53;;;;;;;1999.90;999.90;;;17.60;99.90;;;;;;5014583;28;20504;-70
2022/09/06 05:19:19;;;;;;;1999.90;999.90;;;17.60;99.90;;;;;;5014974;28;20420;-71
2022/09/06 05:21:45;;;;;;;1999.90;999.90;;;17.60;99.90;;;;;;5014983;28;20173;-71
2022/09/06 05:24:10;;;;;;;1999.90;999.90;;;17.60;99.90;;;;;;5014899;28;21083;-71
2022/09/06 05:26:36;;;;;;;1999.90;999.90;;;17.70;99.90;;;;;;5014478;28;20192;-71
2022/09/06 05:29:01;;;;;;;1999.90;999.90;;;17.80;99.90;;;;;;5014734;28;20599;-71
2022/09/06 05:31:29;;;;;;;1999.90;999.90;;;17.80;99.90;;;;;;5014658;28;20170;-70
2022/09/06 05:33:56;;;;;;;1999.90;999.90;;;17.80;99.90;;;;;;5014573;28;20279;-71
2022/09/06 05:36:24;;;;;;;1999.90;999.90;;;17.90;99.90;;;;;;5014396;28;20424;-70
2022/09/06 05:38:50;;;;;;;1999.90;999.90;;;17.90;99.90;;;;;;5014606;28;20414;-70
2022/09/06 05:41:17;;;;;;;1999.90;999.90;;;17.90;99.90;;;;;;5014506;28;20405;-70
2022/09/06 05:43:42;;;;;;;1999.90;999.90;;;18.00;99.90;;;;;;5014436;28;20434;-70
2022/09/06 05:46:08;;;;;;;1999.90;999.90;;;18.00;99.90;;;;;;5014100;28;20457;-70
2022/09/06 05:48:34;;;;;;;1999.90;999.90;;;18.10;99.90;;;;;;5014301;28;20215;-70
2022/09/06 05:51:00;;;;;;;1999.90;999.90;;;18.10;99.90;;;;;;5014312;28;20410;-70
2022/09/06 05:53:26;;;;;;;1999.90;999.90;;;18.20;99.90;;;;;;5014241;28;20193;-70
2022/09/06 05:55:51;;;;;;;1999.90;999.90;;;18.20;99.90;;;;;;5014057;28;20438;-70
2022/09/06 05:58:17;;;;;;;1999.90;999.90;;;18.30;99.90;;;;;;5013830;28;20560;-70
2022/09/06 06:00:42;;;;;;;1999.90;999.90;;;18.40;99.90;;;;;;5014206;28;20302;-70
2022/09/06 06:03:08;;;;;;;1999.90;999.90;;;18.40;99.90;;;;;;5013148;28;20166;-70
2022/09/06 06:05:34;;;;;;;1999.90;999.90;;;18.50;99.90;;;;;;5013975;28;20243;-70
2022/09/06 06:07:59;;;;;;;1999.90;999.90;;;18.60;99.90;;;;;;5013770;28;20184;-70
2022/09/06 06:10:25;;;;;;;1999.90;999.90;;;18.60;99.90;;;;;;5013950;28;20648;-70
2022/09/06 06:12:50;;;;;;;1999.90;999.90;;;18.60;99.90;;;;;;5013856;28;20191;-70
2022/09/06 06:15:16;;;;;;;1999.90;999.90;;;18.70;99.90;;;;;;5013786;28;20179;-70
2022/09/06 06:17:41;;;;;;;1999.90;999.90;;;18.70;99.90;;;;;;5013489;28;20176;-70
2022/09/06 06:20:08;;;;;;;1999.90;999.90;;;18.70;99.90;;;;;;5013763;28;20647;-70
2022/09/06 06:22:33;;;;;;;1999.90;999.90;;;18.80;99.90;;;;;;5013733;28;20548;-70
2022/09/06 06:24:59;;;;;;;1999.90;999.90;;;18.80;99.90;;;;;;5013722;28;20500;-70
2022/09/06 06:27:24;;;;;;;1999.90;999.90;;;18.90;99.90;;;;;;5013225;28;20201;-70
2022/09/06 06:29:51;;;;;;;1999.90;999.90;;;19.00;99.90;;;;;;5013822;28;20204;-70
2022/09/06 06:32:16;;;;;;;1999.90;999.90;;;19.00;99.90;;;;;;5013497;28;20181;-70
2022/09/06 06:34:42;;;;;;;1999.90;999.90;;;19.10;99.90;;;;;;5013465;28;20487;-70
2022/09/06 06:37:08;;;;;;;1999.90;999.90;;;19.20;99.90;;;;;;5013066;28;20220;-71
2022/09/06 06:39:34;;;;;;;1999.90;999.90;;;19.20;99.90;;;;;;5013436;28;20176;-71
2022/09/06 06:41:59;;;;;;;1999.90;999.90;;;19.30;99.90;;;;;;5013363;28;20173;-71
2022/09/06 06:44:26;;;;;;;1999.90;999.90;;;19.40;99.90;;;;;;5013337;28;20756;-71
2022/09/06 06:46:52;;;;;;;1999.90;999.90;;;19.50;99.90;;;;;;5013060;28;20733;-71
2022/09/06 06:49:18;;;;;;;1999.90;999.90;;;19.50;99.90;;;;;;5013251;28;20504;-71
2022/09/06 06:51:43;;;;;;;1999.90;999.90;;;19.60;99.90;;;;;;5013230;28;20173;-71
2022/09/06 06:54:09;;;;;;;1999.90;999.90;;;19.70;99.90;;;;;;5013176;28;20197;-71
2022/09/06 06:56:37;;;;;;;1999.90;999.90;;;19.70;99.90;;;;;;5012761;28;20850;-71
2022/09/06 06:59:04;;;;;;;1999.90;999.90;;;19.80;99.90;;;;;;5012979;28;20642;-71
2022/09/06 07:01:31;;;;;;;1999.90;999.90;;;19.90;99.90;;;;;;5013090;28;20415;-71
2022/09/06 07:03:57;;;;;;;1999.90;999.90;;;19.90;99.90;;;;;;5012970;28;20413;-71
2022/09/06 07:06:24;;;;;;;1999.90;999.90;;;20.00;99.90;;;;;;5012598;28;20435;-71
2022/09/06 07:08:49;;;;;;;1999.90;999.90;;;20.00;99.90;;;;;;5012903;28;20419;-70
2022/09/06 07:11:16;;;;;;;1999.90;999.90;;;20.10;99.90;;;;;;5012805;28;20417;-71
2022/09/06 07:13:42;;;;;;;1999.90;999.90;;;20.20;99.90;;;;;;5012600;28;20205;-71
2022/09/06 07:16:18;;;;;;;1999.90;999.90;;;20.20;99.90;;;;;;5012396;28;20427;-71
2022/09/06 07:18:44;;;;;;;1999.90;999.90;;;20.30;99.90;;;;;;5012903;28;20402;-71
2022/09/06 07:21:18;;;;;;;1999.90;999.90;;;20.30;99.90;;;;;;5012753;28;20486;-71
2022/09/06 07:23:44;;;;;;;1999.90;999.90;;;20.40;99.90;;;;;;5012688;28;20419;-71
2022/09/06 07:26:17;;;;;;;1999.90;999.90;;;20.50;99.90;;;;;;5012325;28;20428;-71
2022/09/06 07:28:43;;;;;;;1999.90;999.90;;;20.70;99.90;;;;;;5012579;28;20411;-71
2022/09/06 07:31:10;;;;;;;1999.90;999.90;;;20.80;99.90;;;;;;5012667;28;20829;-71
2022/09/06 07:33:36;;;;;;;1999.90;999.90;;;20.80;99.90;;;;;;5012468;28;20431;-69
2022/09/06 07:36:04;;;;;;;1999.90;999.90;;;21.00;99.90;;;;;;5012106;28;20429;-70
2022/09/06 07:38:31;;;;;;;1999.90;999.90;;;21.10;99.90;;;;;;5012568;28;20430;-70
2022/09/06 07:41:01;;;;;;;1999.90;999.90;;;21.20;99.90;;;;;;5012402;28;20425;-69
2022/09/06 07:43:27;;;;;;;1999.90;999.90;;;21.20;99.90;;;;;;5012372;28;20409;-69
2022/09/06 07:46:08;;;;;;;1999.90;999.90;;;21.30;99.90;;;;;;5012212;28;20516;-69
2022/09/06 07:48:36;;;;;;;1999.90;999.90;;;21.40;99.90;;;;;;5012302;28;20391;-69
2022/09/06 07:51:07;;;;;;;1999.90;999.90;;;21.50;99.90;;;;;;5012340;28;20928;-69
2022/09/06 07:53:34;;;;;;;1999.90;999.90;;;21.50;99.90;;;;;;5012173;28;20466;-70
2022/09/06 07:56:01;;;;;;;1999.90;999.90;;;21.70;99.90;;;;;;5012033;28;20431;-70
2022/09/06 07:58:28;;;;;;;1999.90;999.90;;;21.80;99.90;;;;;;5011969;28;20500;-71
2022/09/06 08:01:12;;;;;;;1999.90;999.90;;;21.90;99.90;;;;;;5012153;28;20411;-69
2022/09/06 08:03:37;;;;;;;1999.90;999.90;;;22.00;99.90;;;;;;5012122;28;20440;-69
2022/09/06 08:06:03;;;;;;;1999.90;999.90;;;22.10;99.90;;;;;;5011852;28;20430;-70
2022/09/06 08:08:29;;;;;;;1999.90;999.90;;;22.30;99.90;;;;;;5012213;28;20642;-70
2022/09/06 08:10:55;;;;;;;1999.90;999.90;;;22.40;99.90;;;;;;5012650;28;20181;-71
2022/09/06 08:13:20;;;;;;;1999.90;999.90;;;22.50;99.90;;;;;;5012027;28;20454;-71
2022/09/06 08:15:46;;;;;;;1999.90;999.90;;;22.60;99.90;;;;;;5012022;28;20226;-71
2022/09/06 08:18:11;;;;;;;1999.90;999.90;;;22.70;99.90;;;;;;5011763;28;20175;-71
2022/09/06 08:20:37;;;;;;;1999.90;999.90;;;22.80;99.90;;;;;;5012001;28;20173;-70
2022/09/06 08:23:09;;;;;;;1999.90;999.90;;;22.90;99.90;;;;;;5012021;28;20679;-70
2022/09/06 08:25:34;;;;;;;1999.90;999.90;;;23.00;99.90;;;;;;5012013;28;20246;-70
2022/09/06 08:28:00;;;;;;;1999.90;999.90;;;23.10;99.90;;;;;;5015537;28;20868;-69
2022/09/06 08:30:27;;;;;;;1999.90;999.90;;;23.20;99.90;;;;;;5015773;28;20271;-70
2022/09/06 08:32:52;;;;;;;1999.90;999.90;;;23.30;99.90;;;;;;5015733;28;20193;-70
2022/09/06 08:35:18;;;;;;;1999.90;999.90;;;23.40;99.90;;;;;;5015656;28;20983;-71
2022/09/06 08:37:43;;;;;;;1999.90;999.90;;;23.50;99.90;;;;;;5015466;28;20180;-71
2022/09/06 08:40:10;;;;;;;1999.90;999.90;;;23.60;99.90;;;;;;5015702;28;20203;-71
2022/09/06 08:42:38;;;;;;;1999.90;999.90;;;23.80;99.90;;;;;;5015621;28;20173;-72
2022/09/06 08:45:11;;;;;;;1999.90;999.90;;;23.90;99.90;;;;;;5015471;28;20386;-71
2022/09/06 08:47:37;;;;;;;1999.90;999.90;;;23.90;99.90;;;;;;5015193;28;20486;-71
2022/09/06 08:50:06;;;;;;;1999.90;999.90;;;24.00;99.90;;;;;;5015607;28;20411;-71
2022/09/06 08:52:40;;;;;;;1999.90;999.90;;;24.10;99.90;;;;;;5015363;28;20485;-70
2022/09/06 08:55:09;;;;;;;1999.90;999.90;;;24.20;99.90;;;;;;5015526;28;20407;-70
2022/09/06 08:58:01;;;;;;;1999.90;999.90;;;24.30;99.90;;;;;;5014833;28;20426;-71
2022/09/06 09:00:27;;;;;;;1999.90;999.90;;;24.40;99.90;;;;;;5015276;28;20382;-71
2022/09/06 09:03:05;;;;;;;1999.90;999.90;;;24.60;99.90;;;;;;5015289;28;20522;-70
2022/09/06 09:05:36;;;;;;;1999.90;999.90;;;24.60;99.90;;;;;;5015116;28;20168;-70
2022/09/06 09:08:26;;;;;;;1999.90;999.90;;;24.70;99.90;;;;;;5014874;28;20481;-71
2022/09/06 09:11:02;;;;;;;1999.90;999.90;;;24.80;99.90;;;;;;5015029;28;20381;-70
2022/09/06 09:13:45;;;;;;;1999.90;999.90;;;24.90;99.90;;;;;;5014909;28;20447;-71
2022/09/06 09:16:12;;;;;;;1999.90;999.90;;;25.10;99.90;;;;;;5014673;28;20398;-71
2022/09/06 09:18:41;;;;;;;1999.90;999.90;;;25.20;99.90;;;;;;5004587;28;20395;-71
2022/09/06 09:21:08;;;;;;;1999.90;999.90;;;25.30;99.90;;;;;;4995134;28;20372;-70
2022/09/06 09:23:34;;;;;;;1999.90;999.90;;;25.40;99.90;;;;;;4995140;28;20408;-70
2022/09/06 09:26:09;;;;;;;1999.90;999.90;;;25.60;99.90;;;;;;4994470;28;20521;-70
2022/09/06 09:28:35;;;;;;;1999.90;999.90;;;25.70;99.90;;;;;;4995128;28;20390;-70
2022/09/06 09:31:01;;;;;;;1999.90;999.90;;;25.80;99.90;;;;;;4995167;28;20391;-70
2022/09/06 09:33:31;;;;;;;1999.90;999.90;;;25.90;99.90;;;;;;4995177;28;20449;-70
2022/09/06 09:36:09;;;;;;;1999.90;999.90;;;26.10;99.90;;;;;;4994741;28;20832;-70
2022/09/06 09:38:48;;;;;;;1999.90;999.90;;;26.20;99.90;;;;;;4993592;28;20416;-70
2022/09/06 09:41:32;;;;;;;1999.90;999.90;;;26.40;99.90;;;;;;4994847;28;20412;-70
2022/09/06 09:43:59;;;;;;;1999.90;999.90;;;26.50;99.90;;;;;;4994784;28;20387;-70
2022/09/06 09:46:24;;;;;;;1999.90;999.90;;;26.70;99.90;;;;;;4994596;28;20407;-70
2022/09/06 09:49:07;;;;;;;1999.90;999.90;;;26.80;99.90;;;;;;4994875;28;20387;-70
2022/09/06 09:51:35;;;;;;;1999.90;999.90;;;27.00;99.90;;;;;;4994658;28;20173;-70
2022/09/06 09:54:04;;;;;;;1999.90;999.90;;;27.10;99.90;;;;;;4994622;28;20467;-70
2022/09/06 09:56:48;;;;;;;1999.90;999.90;;;27.10;99.90;;;;;;4994509;28;20781;-71
2022/09/06 09:59:54;;;;;;;1999.90;999.90;;;27.20;99.90;;;;;;4994509;28;20439;-71
2022/09/06 10:02:25;;;;;;;1999.90;999.90;;;27.30;99.90;;;;;;4934161;29;20416;-70
2022/09/06 10:04:59;;;;;;;1999.90;999.90;;;27.40;99.90;;;;;;4984719;28;20513;-71
2022/09/06 10:07:25;;;;;;;1999.90;999.90;;;27.50;99.90;;;;;;4994399;28;20433;-70
2022/09/06 10:10:03;;;;;;;1999.90;999.90;;;27.70;99.90;;;;;;4994473;28;20386;-71
2022/09/06 10:12:34;;;;;;;1999.90;999.90;;;27.80;99.90;;;;;;4994362;28;20423;-71
2022/09/06 10:15:01;;;;;;;1999.90;999.90;;;27.90;99.90;;;;;;4995342;28;20953;-71
2022/09/06 10:17:36;;;;;;;1999.90;999.90;;;28.00;99.90;;;;;;5012747;28;20503;-71
2022/09/06 10:20:11;;;;;;;1999.90;999.90;;;28.10;99.90;;;;;;5013541;28;20399;-70
2022/09/06 10:22:42;;;;;;;1999.90;999.90;;;28.10;99.90;;;;;;5013011;28;20420;-70
2022/09/06 10:25:11;;;;;;;1999.90;999.90;;;28.40;98.50;;;;;;5013096;28;21035;-70
2022/09/06 10:27:49;;;;;;;1999.90;999.90;;;28.40;98.30;;;;;;5013509;28;20423;-70
2022/09/06 10:30:14;;;;;;;1999.90;999.90;;;28.50;98.60;;;;;;5012913;28;20431;-70
2022/09/06 10:32:47;;;;;;;1999.90;999.90;;;28.60;98.40;;;;;;5013120;28;20774;-70
2022/09/06 10:35:25;;;;;;;1999.90;999.90;;;28.60;97.20;;;;;;5013155;28;20175;-71
2022/09/06 10:38:31;;;;;;;1999.90;999.90;;;28.80;95.90;;;;;;5012283;28;20410;-70
2022/09/06 10:41:28;;;;;;;1999.90;999.90;;;28.90;94.20;;;;;;5003043;28;20463;-71
2022/09/06 10:44:03;;;;;;;1999.90;999.90;;;29.10;91.90;;;;;;5012394;28;20962;-71
2022/09/06 10:46:33;;;;;;;1999.90;999.90;;;29.30;89.40;;;;;;5012743;28;20935;-71
2022/09/06 10:48:59;;;;;;;1999.90;999.90;;;29.30;89.60;;;;;;5012698;28;20422;-71
2022/09/06 10:51:45;;;;;;;1999.90;999.90;;;29.30;86.70;;;;;;5012490;28;20478;-71
2022/09/06 10:54:13;;;;;;;1999.90;999.90;;;29.30;89.40;;;;;;5012800;28;20200;-71
2022/09/06 10:56:59;;;;;;;1999.90;999.90;;;29.20;87.30;;;;;;5012495;28;20428;-71
2022/09/06 10:59:35;;;;;;;1999.90;999.90;;;29.40;86.20;;;;;;5012392;28;20491;-71
2022/09/06 11:02:10;;;;;;;1999.90;999.90;;;29.20;84.10;;;;;;5012951;28;20392;-71
2022/09/06 11:04:41;;;;;;;1999.90;999.90;;;29.30;83.20;;;;;;5012561;28;20477;-71
2022/09/06 11:07:38;;;;;;;1999.90;999.90;;;29.40;84.80;;;;;;5011791;28;20416;-71
2022/09/06 11:10:28;;;;;;;1999.90;999.90;;;29.50;85.10;;;;;;5009609;28;20438;-71
2022/09/06 11:13:09;;;;;;;1999.90;999.90;;;29.50;83.80;;;;;;5012616;28;20839;-71
2022/09/06 11:16:15;;;;;;;1999.90;999.90;;;29.70;82.50;;;;;;5012192;28;20459;-71
2022/09/06 11:18:45;;;;;;;1999.90;999.90;;;29.90;81.80;;;;;;5012503;28;20486;-71
2022/09/06 11:21:38;;;;;;;1999.90;999.90;;;29.90;76.60;;;;;;5012377;28;20783;-71
2022/09/06 11:24:06;;;;;;;1999.90;999.90;;;29.90;82.10;;;;;;5012465;28;20406;-71
2022/09/06 11:26:52;;;;;;;1999.90;999.90;;;30.10;84.30;;;;;;5011791;28;20431;-71
2022/09/06 11:29:26;;;;;;;1999.90;999.90;;;30.10;74.70;;;;;;4981436;28;20940;-71
2022/09/06 11:32:00;;;;;;;1999.90;999.90;;;29.80;76.20;;;;;;5012699;28;20799;-71
2022/09/06 11:34:32;;;;;;;1999.90;999.90;;;30.00;77.10;;;;;;5012392;28;20920;-71
2022/09/06 11:37:22;;;;;;;1999.90;999.90;;;30.20;74.70;;;;;;5011680;28;20418;-71
2022/09/06 11:40:16;;;;;;;1999.90;999.90;;;30.20;76.50;;;;;;5012323;28;20404;-71
2022/09/06 11:42:44;;;;;;;1999.90;999.90;;;30.30;73.30;;;;;;5012762;28;20774;-71
2022/09/06 11:45:09;;;;;;;1999.90;999.90;;;30.50;73.80;;;;;;5011827;28;20458;-71
2022/09/06 11:47:35;;;;;;;1999.90;999.90;;;30.90;71.50;;;;;;5012147;28;20419;-71
2022/09/06 11:50:19;;;;;;;1999.90;999.90;;;31.50;66.90;;;;;;5012549;28;20195;-71
2022/09/06 11:53:01;;;;;;;1999.90;999.90;;;32.30;63.40;;;;;;5012282;28;20487;-71
2022/09/06 11:55:58;;;;;;;1999.90;999.90;;;33.00;58.00;;;;;;5012491;28;20400;-71
2022/09/06 11:58:45;;;;;;;1999.90;999.90;;;34.00;53.80;;;;;;4990877;28;20434;-71
2022/09/06 12:01:17;;;;;;;1999.90;999.90;;;35.00;46.90;;;;;;5011804;28;20400;-71
2022/09/06 12:03:52;;;;;;;1999.90;999.90;;;35.70;41.00;;;;;;5012140;28;20826;-71
2022/09/06 12:06:29;;;;;;;1999.90;999.90;;;36.10;36.60;;;;;;5011099;28;20466;-71
2022/09/06 12:08:55;;;;;;;1999.90;999.90;;;36.40;33.40;;;;;;5011832;28;20408;-71
2022/09/06 12:11:21;;;;;;;1999.90;999.90;;;36.50;31.50;;;;;;5011807;28;20408;-71
2022/09/06 12:14:25;;;;;;;1999.90;999.90;;;36.90;30.00;;;;;;5011420;28;20731;-71